sensor_id;sensor_type;location;lat;lon;timestamp;P1;durP1;ratioP1;P2;durP2;ratioP2
32152;SDS011;18656;50.580;11.392;2023-02-07T00:00:23;31.85;;;20.25;;
32152;SDS011;18656;50.580;11.392;2023-02-07T00:02:51;35.72;;;22.50;;
32152;SDS011;18656;50.580;11.392;2023-02-07T00:05:21;41.08;;;25.70;;
32152;SDS011;18656;50.580;11.392;2023-02-07T00:07:48;39.17;;;23.60;;
32152;SDS011;18656;50.580;11.392;2023-02-07T00:10:15;38.75;;;25.23;;
32152;SDS011;18656;50.580;11.392;2023-02-07T00:12:42;40.67;;;24.15;;
32152;SDS011;18656;50.580;11.392;2023-02-07T00:15:10;38.20;;;23.77;;
32152;SDS011;18656;50.580;11.392;2023-02-07T00:17:37;35.40;;;23.30;;
32152;SDS011;18656;50.580;11.392;2023-02-07T00:20:05;39.80;;;22.98;;
32152;SDS011;18656;50.580;11.392;2023-02-07T00:22:32;39.80;;;24.25;;
32152;SDS011;18656;50.580;11.392;2023-02-07T00:24:59;36.63;;;24.05;;
32152;SDS011;18656;50.580;11.392;2023-02-07T00:27:26;37.00;;;23.48;;
32152;SDS011;18656;50.580;11.392;2023-02-07T00:29:54;35.03;;;22.95;;
32152;SDS011;18656;50.580;11.392;2023-02-07T00:32:21;35.28;;;22.08;;
32152;SDS011;18656;50.580;11.392;2023-02-07T00:34:48;32.33;;;21.88;;
32152;SDS011;18656;50.580;11.392;2023-02-07T00:37:18;33.78;;;21.73;;
32152;SDS011;18656;50.580;11.392;2023-02-07T00:39:45;36.30;;;23.55;;
32152;SDS011;18656;50.580;11.392;2023-02-07T00:42:12;38.45;;;22.98;;
32152;SDS011;18656;50.580;11.392;2023-02-07T00:44:40;39.00;;;23.50;;
32152;SDS011;18656;50.580;11.392;2023-02-07T00:47:07;37.00;;;22.88;;
32152;SDS011;18656;50.580;11.392;2023-02-07T00:49:34;37.67;;;24.23;;
32152;SDS011;18656;50.580;11.392;2023-02-07T00:52:01;37.03;;;23.27;;
32152;SDS011;18656;50.580;11.392;2023-02-07T00:54:28;36.92;;;23.42;;
32152;SDS011;18656;50.580;11.392;2023-02-07T00:56:56;36.45;;;23.08;;
32152;SDS011;18656;50.580;11.392;2023-02-07T00:59:23;36.80;;;23.30;;
32152;SDS011;18656;50.580;11.392;2023-02-07T01:01:50;37.13;;;23.52;;
32152;SDS011;18656;50.580;11.392;2023-02-07T01:04:17;36.22;;;23.30;;
32152;SDS011;18656;50.580;11.392;2023-02-07T01:06:45;41.00;;;23.33;;
32152;SDS011;18656;50.580;11.392;2023-02-07T01:09:12;38.47;;;23.05;;
32152;SDS011;18656;50.580;11.392;2023-02-07T01:11:39;35.63;;;22.83;;
32152;SDS011;18656;50.580;11.392;2023-02-07T01:14:06;39.05;;;24.42;;
32152;SDS011;18656;50.580;11.392;2023-02-07T01:16:34;37.47;;;22.75;;
32152;SDS011;18656;50.580;11.392;2023-02-07T01:19:03;37.80;;;23.00;;
32152;SDS011;18656;50.580;11.392;2023-02-07T01:21:31;38.42;;;22.35;;
32152;SDS011;18656;50.580;11.392;2023-02-07T01:23:58;37.50;;;22.80;;
32152;SDS011;18656;50.580;11.392;2023-02-07T01:26:26;38.90;;;23.75;;
32152;SDS011;18656;50.580;11.392;2023-02-07T01:28:54;41.42;;;25.45;;
32152;SDS011;18656;50.580;11.392;2023-02-07T01:31:22;41.25;;;24.65;;
32152;SDS011;18656;50.580;11.392;2023-02-07T01:33:53;41.90;;;24.40;;
32152;SDS011;18656;50.580;11.392;2023-02-07T01:36:21;44.33;;;24.85;;
32152;SDS011;18656;50.580;11.392;2023-02-07T01:38:50;40.03;;;23.48;;
32152;SDS011;18656;50.580;11.392;2023-02-07T01:41:17;39.70;;;23.20;;
32152;SDS011;18656;50.580;11.392;2023-02-07T01:43:52;36.97;;;21.38;;
32152;SDS011;18656;50.580;11.392;2023-02-07T01:46:19;36.58;;;21.05;;
32152;SDS011;18656;50.580;11.392;2023-02-07T01:48:46;36.75;;;21.27;;
32152;SDS011;18656;50.580;11.392;2023-02-07T01:51:14;38.83;;;21.67;;
32152;SDS011;18656;50.580;11.392;2023-02-07T01:53:42;38.60;;;22.27;;
32152;SDS011;18656;50.580;11.392;2023-02-07T01:56:10;43.33;;;25.02;;
32152;SDS011;18656;50.580;11.392;2023-02-07T01:58:56;41.53;;;22.95;;
32152;SDS011;18656;50.580;11.392;2023-02-07T02:01:23;37.10;;;22.13;;
32152;SDS011;18656;50.580;11.392;2023-02-07T02:03:53;39.75;;;22.25;;
32152;SDS011;18656;50.580;11.392;2023-02-07T02:06:21;42.80;;;23.40;;
32152;SDS011;18656;50.580;11.392;2023-02-07T02:08:48;39.28;;;21.42;;
32152;SDS011;18656;50.580;11.392;2023-02-07T02:16:37;42.80;;;22.65;;
32152;SDS011;18656;50.580;11.392;2023-02-07T02:19:23;42.17;;;22.58;;
32152;SDS011;18656;50.580;11.392;2023-02-07T02:22:07;42.10;;;23.10;;
32152;SDS011;18656;50.580;11.392;2023-02-07T02:30:08;41.13;;;22.00;;
32152;SDS011;18656;50.580;11.392;2023-02-07T02:32:51;39.63;;;21.85;;
32152;SDS011;18656;50.580;11.392;2023-02-07T02:35:26;42.75;;;23.13;;
32152;SDS011;18656;50.580;11.392;2023-02-07T02:38:08;40.28;;;20.73;;
32152;SDS011;18656;50.580;11.392;2023-02-07T02:40:59;38.53;;;22.23;;
32152;SDS011;18656;50.580;11.392;2023-02-07T02:43:30;42.13;;;22.30;;
32152;SDS011;18656;50.580;11.392;2023-02-07T02:46:02;38.17;;;21.00;;
32152;SDS011;18656;50.580;11.392;2023-02-07T02:48:31;41.15;;;21.73;;
32152;SDS011;18656;50.580;11.392;2023-02-07T02:50:59;43.08;;;21.35;;
32152;SDS011;18656;50.580;11.392;2023-02-07T02:53:27;41.58;;;22.10;;
32152;SDS011;18656;50.580;11.392;2023-02-07T02:58:32;38.08;;;20.08;;
32152;SDS011;18656;50.580;11.392;2023-02-07T03:04:03;42.40;;;20.83;;
32152;SDS011;18656;50.580;11.392;2023-02-07T03:06:42;38.88;;;20.48;;
32152;SDS011;18656;50.580;11.392;2023-02-07T03:11:59;39.90;;;22.00;;
32152;SDS011;18656;50.580;11.392;2023-02-07T03:22:16;40.03;;;21.45;;
32152;SDS011;18656;50.580;11.392;2023-02-07T03:24:49;39.80;;;22.15;;
32152;SDS011;18656;50.580;11.392;2023-02-07T03:27:17;45.20;;;21.70;;
32152;SDS011;18656;50.580;11.392;2023-02-07T03:29:46;40.47;;;20.77;;
32152;SDS011;18656;50.580;11.392;2023-02-07T03:32:15;36.72;;;20.10;;
32152;SDS011;18656;50.580;11.392;2023-02-07T03:34:48;42.83;;;22.75;;
32152;SDS011;18656;50.580;11.392;2023-02-07T03:37:22;43.47;;;20.83;;
32152;SDS011;18656;50.580;11.392;2023-02-07T03:39:51;44.60;;;21.15;;
32152;SDS011;18656;50.580;11.392;2023-02-07T03:42:29;45.95;;;23.00;;
32152;SDS011;18656;50.580;11.392;2023-02-07T03:44:58;46.13;;;23.13;;
32152;SDS011;18656;50.580;11.392;2023-02-07T03:47:26;39.25;;;20.65;;
32152;SDS011;18656;50.580;11.392;2023-02-07T03:49:54;41.50;;;21.08;;
32152;SDS011;18656;50.580;11.392;2023-02-07T03:52:21;43.22;;;21.45;;
32152;SDS011;18656;50.580;11.392;2023-02-07T03:54:48;43.83;;;22.00;;
32152;SDS011;18656;50.580;11.392;2023-02-07T03:57:16;43.10;;;22.58;;
32152;SDS011;18656;50.580;11.392;2023-02-07T03:59:43;44.05;;;21.20;;
32152;SDS011;18656;50.580;11.392;2023-02-07T04:02:10;47.50;;;22.67;;
32152;SDS011;18656;50.580;11.392;2023-02-07T04:04:38;46.97;;;22.63;;
32152;SDS011;18656;50.580;11.392;2023-02-07T04:07:05;52.25;;;24.90;;
32152;SDS011;18656;50.580;11.392;2023-02-07T04:09:32;51.40;;;25.02;;
32152;SDS011;18656;50.580;11.392;2023-02-07T04:12:00;54.78;;;24.77;;
32152;SDS011;18656;50.580;11.392;2023-02-07T04:14:27;50.95;;;24.67;;
32152;SDS011;18656;50.580;11.392;2023-02-07T04:16:54;51.03;;;25.33;;
32152;SDS011;18656;50.580;11.392;2023-02-07T04:19:22;52.53;;;24.92;;
32152;SDS011;18656;50.580;11.392;2023-02-07T04:21:49;48.35;;;25.13;;
32152;SDS011;18656;50.580;11.392;2023-02-07T04:24:16;51.58;;;25.05;;
32152;SDS011;18656;50.580;11.392;2023-02-07T04:26:43;52.05;;;25.33;;
32152;SDS011;18656;50.580;11.392;2023-02-07T04:29:11;53.50;;;25.88;;
32152;SDS011;18656;50.580;11.392;2023-02-07T04:31:38;52.33;;;25.10;;
32152;SDS011;18656;50.580;11.392;2023-02-07T04:34:07;47.65;;;25.25;;
32152;SDS011;18656;50.580;11.392;2023-02-07T04:36:35;55.17;;;26.58;;
32152;SDS011;18656;50.580;11.392;2023-02-07T04:39:02;56.35;;;27.35;;
32152;SDS011;18656;50.580;11.392;2023-02-07T04:41:29;54.78;;;26.05;;
32152;SDS011;18656;50.580;11.392;2023-02-07T04:43:57;47.90;;;24.45;;
32152;SDS011;18656;50.580;11.392;2023-02-07T04:46:24;48.90;;;25.30;;
32152;SDS011;18656;50.580;11.392;2023-02-07T04:48:53;52.47;;;25.73;;
32152;SDS011;18656;50.580;11.392;2023-02-07T04:51:20;55.88;;;26.55;;
32152;SDS011;18656;50.580;11.392;2023-02-07T04:53:47;45.88;;;25.92;;
32152;SDS011;18656;50.580;11.392;2023-02-07T04:56:14;41.95;;;22.88;;
32152;SDS011;18656;50.580;11.392;2023-02-07T04:58:41;42.08;;;23.60;;
32152;SDS011;18656;50.580;11.392;2023-02-07T05:01:09;40.45;;;23.55;;
32152;SDS011;18656;50.580;11.392;2023-02-07T05:03:36;44.25;;;22.77;;
32152;SDS011;18656;50.580;11.392;2023-02-07T05:06:03;44.47;;;24.33;;
32152;SDS011;18656;50.580;11.392;2023-02-07T05:08:30;41.35;;;22.55;;
32152;SDS011;18656;50.580;11.392;2023-02-07T05:10:58;42.22;;;22.30;;
32152;SDS011;18656;50.580;11.392;2023-02-07T05:13:25;46.55;;;24.20;;
32152;SDS011;18656;50.580;11.392;2023-02-07T05:15:53;40.58;;;22.30;;
32152;SDS011;18656;50.580;11.392;2023-02-07T05:18:20;45.58;;;24.00;;
32152;SDS011;18656;50.580;11.392;2023-02-07T05:20:47;39.40;;;22.77;;
32152;SDS011;18656;50.580;11.392;2023-02-07T05:23:17;40.72;;;21.98;;
32152;SDS011;18656;50.580;11.392;2023-02-07T05:25:45;36.10;;;21.05;;
32152;SDS011;18656;50.580;11.392;2023-02-07T05:28:13;36.03;;;20.42;;
32152;SDS011;18656;50.580;11.392;2023-02-07T05:30:40;38.45;;;21.00;;
32152;SDS011;18656;50.580;11.392;2023-02-07T05:33:08;41.08;;;21.58;;
32152;SDS011;18656;50.580;11.392;2023-02-07T05:35:36;40.42;;;23.02;;
32152;SDS011;18656;50.580;11.392;2023-02-07T05:38:05;44.88;;;24.63;;
32152;SDS011;18656;50.580;11.392;2023-02-07T05:40:34;47.63;;;25.65;;
32152;SDS011;18656;50.580;11.392;2023-02-07T05:43:02;49.28;;;25.98;;
32152;SDS011;18656;50.580;11.392;2023-02-07T05:45:29;48.15;;;24.48;;
32152;SDS011;18656;50.580;11.392;2023-02-07T05:47:57;47.72;;;25.30;;
32152;SDS011;18656;50.580;11.392;2023-02-07T05:50:24;46.80;;;24.77;;
32152;SDS011;18656;50.580;11.392;2023-02-07T05:52:52;46.55;;;24.80;;
32152;SDS011;18656;50.580;11.392;2023-02-07T05:55:19;51.53;;;25.27;;
32152;SDS011;18656;50.580;11.392;2023-02-07T05:57:47;47.58;;;24.55;;
32152;SDS011;18656;50.580;11.392;2023-02-07T06:00:16;61.22;;;32.47;;
32152;SDS011;18656;50.580;11.392;2023-02-07T06:02:44;88.80;;;49.10;;
32152;SDS011;18656;50.580;11.392;2023-02-07T06:05:12;64.93;;;34.97;;
32152;SDS011;18656;50.580;11.392;2023-02-07T06:07:39;80.15;;;45.42;;
32152;SDS011;18656;50.580;11.392;2023-02-07T06:10:07;125.38;;;73.13;;
32152;SDS011;18656;50.580;11.392;2023-02-07T06:12:35;66.50;;;36.38;;
32152;SDS011;18656;50.580;11.392;2023-02-07T06:15:03;62.47;;;32.05;;
32152;SDS011;18656;50.580;11.392;2023-02-07T06:17:30;55.45;;;28.55;;
32152;SDS011;18656;50.580;11.392;2023-02-07T06:19:58;49.40;;;27.17;;
32152;SDS011;18656;50.580;11.392;2023-02-07T06:22:25;44.72;;;24.50;;
32152;SDS011;18656;50.580;11.392;2023-02-07T06:24:53;44.45;;;23.17;;
32152;SDS011;18656;50.580;11.392;2023-02-07T06:27:20;46.42;;;24.92;;
32152;SDS011;18656;50.580;11.392;2023-02-07T06:29:48;44.38;;;23.60;;
32152;SDS011;18656;50.580;11.392;2023-02-07T06:32:15;48.53;;;22.63;;
32152;SDS011;18656;50.580;11.392;2023-02-07T06:34:42;44.72;;;22.05;;
32152;SDS011;18656;50.580;11.392;2023-02-07T06:37:10;43.60;;;22.38;;
32152;SDS011;18656;50.580;11.392;2023-02-07T06:39:38;44.25;;;21.83;;
32152;SDS011;18656;50.580;11.392;2023-02-07T06:42:05;43.05;;;21.80;;
32152;SDS011;18656;50.580;11.392;2023-02-07T06:44:32;42.33;;;22.45;;
32152;SDS011;18656;50.580;11.392;2023-02-07T06:46:59;42.05;;;21.15;;
32152;SDS011;18656;50.580;11.392;2023-02-07T06:49:27;44.38;;;21.48;;
32152;SDS011;18656;50.580;11.392;2023-02-07T06:51:54;37.15;;;20.00;;
32152;SDS011;18656;50.580;11.392;2023-02-07T06:54:21;42.90;;;21.10;;
32152;SDS011;18656;50.580;11.392;2023-02-07T06:56:49;36.60;;;19.13;;
32152;SDS011;18656;50.580;11.392;2023-02-07T06:59:16;39.35;;;19.50;;
32152;SDS011;18656;50.580;11.392;2023-02-07T07:01:44;42.65;;;20.27;;
32152;SDS011;18656;50.580;11.392;2023-02-07T07:04:14;48.53;;;20.42;;
32152;SDS011;18656;50.580;11.392;2023-02-07T07:06:43;38.60;;;18.17;;
32152;SDS011;18656;50.580;11.392;2023-02-07T07:09:11;40.25;;;17.90;;
32152;SDS011;18656;50.580;11.392;2023-02-07T07:11:39;34.28;;;16.80;;
32152;SDS011;18656;50.580;11.392;2023-02-07T07:14:08;115.93;;;27.33;;
32152;SDS011;18656;50.580;11.392;2023-02-07T07:16:36;56.85;;;20.50;;
32152;SDS011;18656;50.580;11.392;2023-02-07T07:19:04;42.67;;;18.92;;
32152;SDS011;18656;50.580;11.392;2023-02-07T07:21:31;44.97;;;19.75;;
32152;SDS011;18656;50.580;11.392;2023-02-07T07:23:59;45.85;;;19.40;;
32152;SDS011;18656;50.580;11.392;2023-02-07T07:26:26;40.05;;;19.63;;
32152;SDS011;18656;50.580;11.392;2023-02-07T07:29:11;35.83;;;18.40;;
32152;SDS011;18656;50.580;11.392;2023-02-07T07:31:39;34.95;;;19.08;;
32152;SDS011;18656;50.580;11.392;2023-02-07T07:34:09;36.40;;;19.63;;
32152;SDS011;18656;50.580;11.392;2023-02-07T07:36:37;46.20;;;22.48;;
32152;SDS011;18656;50.580;11.392;2023-02-07T07:39:05;42.55;;;22.73;;
32152;SDS011;18656;50.580;11.392;2023-02-07T07:41:34;40.38;;;21.48;;
32152;SDS011;18656;50.580;11.392;2023-02-07T07:44:01;47.03;;;23.17;;
32152;SDS011;18656;50.580;11.392;2023-02-07T07:46:28;102.13;;;46.85;;
32152;SDS011;18656;50.580;11.392;2023-02-07T07:48:56;61.08;;;32.38;;
32152;SDS011;18656;50.580;11.392;2023-02-07T07:51:23;40.30;;;22.52;;
32152;SDS011;18656;50.580;11.392;2023-02-07T07:53:50;47.63;;;25.52;;
32152;SDS011;18656;50.580;11.392;2023-02-07T07:56:17;50.28;;;26.55;;
32152;SDS011;18656;50.580;11.392;2023-02-07T07:58:45;46.17;;;25.35;;
32152;SDS011;18656;50.580;11.392;2023-02-07T08:01:13;52.15;;;28.00;;
32152;SDS011;18656;50.580;11.392;2023-02-07T08:03:41;48.70;;;24.95;;
32152;SDS011;18656;50.580;11.392;2023-02-07T08:06:08;43.45;;;22.80;;
32152;SDS011;18656;50.580;11.392;2023-02-07T08:08:36;46.20;;;23.15;;
32152;SDS011;18656;50.580;11.392;2023-02-07T08:11:04;43.60;;;21.83;;
32152;SDS011;18656;50.580;11.392;2023-02-07T08:13:33;44.60;;;22.63;;
32152;SDS011;18656;50.580;11.392;2023-02-07T08:16:01;41.22;;;21.60;;
32152;SDS011;18656;50.580;11.392;2023-02-07T08:18:28;42.20;;;22.58;;
32152;SDS011;18656;50.580;11.392;2023-02-07T08:20:56;47.22;;;23.90;;
32152;SDS011;18656;50.580;11.392;2023-02-07T08:23:23;47.83;;;23.15;;
32152;SDS011;18656;50.580;11.392;2023-02-07T08:25:51;42.03;;;22.27;;
32152;SDS011;18656;50.580;11.392;2023-02-07T08:28:18;37.80;;;20.67;;
32152;SDS011;18656;50.580;11.392;2023-02-07T08:30:45;42.33;;;22.13;;
32152;SDS011;18656;50.580;11.392;2023-02-07T08:33:13;40.05;;;21.73;;
32152;SDS011;18656;50.580;11.392;2023-02-07T08:35:41;40.72;;;21.15;;
32152;SDS011;18656;50.580;11.392;2023-02-07T08:38:09;40.33;;;21.20;;
32152;SDS011;18656;50.580;11.392;2023-02-07T08:40:36;43.45;;;21.92;;
32152;SDS011;18656;50.580;11.392;2023-02-07T08:43:05;44.90;;;22.70;;
32152;SDS011;18656;50.580;11.392;2023-02-07T08:45:39;48.67;;;24.85;;
32152;SDS011;18656;50.580;11.392;2023-02-07T08:48:07;39.13;;;20.52;;
32152;SDS011;18656;50.580;11.392;2023-02-07T08:50:34;94.35;;;37.55;;
32152;SDS011;18656;50.580;11.392;2023-02-07T08:53:02;81.85;;;34.53;;
32152;SDS011;18656;50.580;11.392;2023-02-07T08:55:29;50.78;;;26.17;;
32152;SDS011;18656;50.580;11.392;2023-02-07T08:57:57;48.42;;;25.08;;
32152;SDS011;18656;50.580;11.392;2023-02-07T09:00:24;42.88;;;24.55;;
32152;SDS011;18656;50.580;11.392;2023-02-07T09:02:52;35.83;;;20.83;;
32152;SDS011;18656;50.580;11.392;2023-02-07T09:05:19;27.40;;;15.77;;
32152;SDS011;18656;50.580;11.392;2023-02-07T09:07:46;70.60;;;45.92;;
32152;SDS011;18656;50.580;11.392;2023-02-07T09:10:14;21.65;;;14.05;;
32152;SDS011;18656;50.580;11.392;2023-02-07T09:12:41;48.67;;;30.42;;
32152;SDS011;18656;50.580;11.392;2023-02-07T09:15:08;22.25;;;15.32;;
32152;SDS011;18656;50.580;11.392;2023-02-07T09:17:36;20.23;;;14.13;;
32152;SDS011;18656;50.580;11.392;2023-02-07T09:20:03;18.80;;;12.00;;
32152;SDS011;18656;50.580;11.392;2023-02-07T09:22:31;17.85;;;11.68;;
32152;SDS011;18656;50.580;11.392;2023-02-07T09:25:18;32.13;;;11.95;;
32152;SDS011;18656;50.580;11.392;2023-02-07T09:27:45;72.55;;;14.75;;
32152;SDS011;18656;50.580;11.392;2023-02-07T09:30:13;29.95;;;11.50;;
32152;SDS011;18656;50.580;11.392;2023-02-07T09:32:40;18.65;;;11.52;;
32152;SDS011;18656;50.580;11.392;2023-02-07T09:35:07;19.65;;;11.23;;
32152;SDS011;18656;50.580;11.392;2023-02-07T09:37:35;16.75;;;11.27;;
32152;SDS011;18656;50.580;11.392;2023-02-07T09:40:15;19.98;;;11.38;;
32152;SDS011;18656;50.580;11.392;2023-02-07T09:45:18;24.05;;;12.50;;
32152;SDS011;18656;50.580;11.392;2023-02-07T09:47:48;22.33;;;11.77;;
32152;SDS011;18656;50.580;11.392;2023-02-07T09:50:20;22.17;;;10.88;;
32152;SDS011;18656;50.580;11.392;2023-02-07T09:52:48;21.02;;;11.30;;
32152;SDS011;18656;50.580;11.392;2023-02-07T09:55:20;22.05;;;13.18;;
32152;SDS011;18656;50.580;11.392;2023-02-07T09:57:53;35.05;;;20.30;;
32152;SDS011;18656;50.580;11.392;2023-02-07T10:00:23;18.80;;;10.23;;
32152;SDS011;18656;50.580;11.392;2023-02-07T10:02:56;21.35;;;11.30;;
32152;SDS011;18656;50.580;11.392;2023-02-07T10:05:41;29.10;;;11.70;;
32152;SDS011;18656;50.580;11.392;2023-02-07T10:08:10;22.90;;;11.07;;
32152;SDS011;18656;50.580;11.392;2023-02-07T10:10:46;23.83;;;10.60;;
32152;SDS011;18656;50.580;11.392;2023-02-07T10:15:55;20.40;;;10.70;;
32152;SDS011;18656;50.580;11.392;2023-02-07T10:23:47;18.45;;;10.50;;
32152;SDS011;18656;50.580;11.392;2023-02-07T10:29:00;17.63;;;9.77;;
32152;SDS011;18656;50.580;11.392;2023-02-07T10:31:29;19.05;;;13.50;;
32152;SDS011;18656;50.580;11.392;2023-02-07T10:34:03;23.02;;;16.83;;
32152;SDS011;18656;50.580;11.392;2023-02-07T10:36:35;39.55;;;27.45;;
32152;SDS011;18656;50.580;11.392;2023-02-07T10:39:08;97.70;;;65.25;;
32152;SDS011;18656;50.580;11.392;2023-02-07T10:41:38;32.67;;;19.42;;
32152;SDS011;18656;50.580;11.392;2023-02-07T10:44:11;44.40;;;29.35;;
32152;SDS011;18656;50.580;11.392;2023-02-07T10:46:42;95.00;;;61.00;;
32152;SDS011;18656;50.580;11.392;2023-02-07T10:49:21;73.40;;;47.35;;
32152;SDS011;18656;50.580;11.392;2023-02-07T10:51:51;46.00;;;31.83;;
32152;SDS011;18656;50.580;11.392;2023-02-07T10:54:21;76.85;;;51.13;;
32152;SDS011;18656;50.580;11.392;2023-02-07T11:00:00;18.25;;;11.80;;
32152;SDS011;18656;50.580;11.392;2023-02-07T11:05:01;16.33;;;10.35;;
32152;SDS011;18656;50.580;11.392;2023-02-07T11:07:31;14.93;;;10.13;;
32152;SDS011;18656;50.580;11.392;2023-02-07T11:12:44;10.27;;;8.23;;
32152;SDS011;18656;50.580;11.392;2023-02-07T11:15:19;52.78;;;41.10;;
32152;SDS011;18656;50.580;11.392;2023-02-07T11:17:48;80.32;;;62.45;;
32152;SDS011;18656;50.580;11.392;2023-02-07T11:20:38;18.00;;;14.90;;
32152;SDS011;18656;50.580;11.392;2023-02-07T11:23:04;12.25;;;9.55;;
32152;SDS011;18656;50.580;11.392;2023-02-07T11:25:37;34.28;;;24.23;;
32152;SDS011;18656;50.580;11.392;2023-02-07T11:28:06;8.27;;;6.90;;
32152;SDS011;18656;50.580;11.392;2023-02-07T11:30:34;7.40;;;6.50;;
32152;SDS011;18656;50.580;11.392;2023-02-07T11:33:03;53.85;;;23.08;;
32152;SDS011;18656;50.580;11.392;2023-02-07T11:35:31;7.10;;;6.18;;
32152;SDS011;18656;50.580;11.392;2023-02-07T11:38:00;28.60;;;8.35;;
32152;SDS011;18656;50.580;11.392;2023-02-07T11:40:51;12.27;;;7.68;;
32152;SDS011;18656;50.580;11.392;2023-02-07T11:43:18;214.13;;;21.70;;
32152;SDS011;18656;50.580;11.392;2023-02-07T11:45:49;46.03;;;14.00;;
32152;SDS011;18656;50.580;11.392;2023-02-07T11:48:18;35.40;;;21.92;;
32152;SDS011;18656;50.580;11.392;2023-02-07T11:50:48;39.03;;;22.52;;
32152;SDS011;18656;50.580;11.392;2023-02-07T11:53:20;31.55;;;11.25;;
32152;SDS011;18656;50.580;11.392;2023-02-07T11:55:51;13.55;;;9.35;;
32152;SDS011;18656;50.580;11.392;2023-02-07T12:01:00;18.35;;;11.73;;
32152;SDS011;18656;50.580;11.392;2023-02-07T12:03:41;31.58;;;21.20;;
32152;SDS011;18656;50.580;11.392;2023-02-07T12:06:12;78.35;;;42.67;;
32152;SDS011;18656;50.580;11.392;2023-02-07T12:08:40;18.50;;;13.55;;
32152;SDS011;18656;50.580;11.392;2023-02-07T12:11:15;14.07;;;12.05;;
32152;SDS011;18656;50.580;11.392;2023-02-07T12:13:45;16.55;;;13.82;;
32152;SDS011;18656;50.580;11.392;2023-02-07T12:16:34;21.23;;;15.18;;
32152;SDS011;18656;50.580;11.392;2023-02-07T12:19:06;18.90;;;14.13;;
32152;SDS011;18656;50.580;11.392;2023-02-07T12:24:14;17.73;;;12.93;;
32152;SDS011;18656;50.580;11.392;2023-02-07T12:26:51;25.80;;;14.82;;
32152;SDS011;18656;50.580;11.392;2023-02-07T12:29:23;20.63;;;14.43;;
32152;SDS011;18656;50.580;11.392;2023-02-07T12:31:59;18.30;;;12.95;;
32152;SDS011;18656;50.580;11.392;2023-02-07T12:42:46;17.15;;;12.25;;
32152;SDS011;18656;50.580;11.392;2023-02-07T12:48:13;16.08;;;12.00;;
32152;SDS011;18656;50.580;11.392;2023-02-07T13:00:49;18.92;;;12.45;;
32152;SDS011;18656;50.580;11.392;2023-02-07T13:03:24;19.98;;;12.27;;
32152;SDS011;18656;50.580;11.392;2023-02-07T13:06:17;16.95;;;11.85;;
32152;SDS011;18656;50.580;11.392;2023-02-07T13:09:02;16.55;;;11.40;;
32152;SDS011;18656;50.580;11.392;2023-02-07T13:11:37;16.77;;;11.98;;
32152;SDS011;18656;50.580;11.392;2023-02-07T13:19:37;22.63;;;11.25;;
32152;SDS011;18656;50.580;11.392;2023-02-07T13:24:34;25.15;;;11.93;;
32152;SDS011;18656;50.580;11.392;2023-02-07T13:27:06;17.17;;;12.15;;
32152;SDS011;18656;50.580;11.392;2023-02-07T13:29:35;16.67;;;10.65;;
32152;SDS011;18656;50.580;11.392;2023-02-07T13:32:07;23.83;;;10.95;;
32152;SDS011;18656;50.580;11.392;2023-02-07T13:34:43;16.17;;;10.32;;
32152;SDS011;18656;50.580;11.392;2023-02-07T13:37:11;19.63;;;11.43;;
32152;SDS011;18656;50.580;11.392;2023-02-07T13:39:47;17.80;;;10.52;;
32152;SDS011;18656;50.580;11.392;2023-02-07T13:42:34;16.70;;;10.88;;
32152;SDS011;18656;50.580;11.392;2023-02-07T13:45:10;14.15;;;10.23;;
32152;SDS011;18656;50.580;11.392;2023-02-07T13:53:02;16.65;;;10.88;;
32152;SDS011;18656;50.580;11.392;2023-02-07T13:55:32;18.42;;;10.82;;
32152;SDS011;18656;50.580;11.392;2023-02-07T13:58:00;16.15;;;10.43;;
32152;SDS011;18656;50.580;11.392;2023-02-07T14:03:18;16.92;;;11.00;;
32152;SDS011;18656;50.580;11.392;2023-02-07T14:05:46;14.05;;;10.48;;
32152;SDS011;18656;50.580;11.392;2023-02-07T14:10:52;12.52;;;9.90;;
32152;SDS011;18656;50.580;11.392;2023-02-07T14:18:32;19.58;;;11.93;;
32152;SDS011;18656;50.580;11.392;2023-02-07T14:21:03;16.70;;;10.70;;
32152;SDS011;18656;50.580;11.392;2023-02-07T14:31:49;19.77;;;10.60;;
32152;SDS011;18656;50.580;11.392;2023-02-07T14:34:18;21.48;;;10.30;;
32152;SDS011;18656;50.580;11.392;2023-02-07T14:36:49;13.57;;;9.95;;
32152;SDS011;18656;50.580;11.392;2023-02-07T14:39:26;66.47;;;13.93;;
32152;SDS011;18656;50.580;11.392;2023-02-07T14:41:59;28.58;;;10.57;;
32152;SDS011;18656;50.580;11.392;2023-02-07T14:44:32;36.20;;;10.88;;
32152;SDS011;18656;50.580;11.392;2023-02-07T14:47:01;14.60;;;9.38;;
32152;SDS011;18656;50.580;11.392;2023-02-07T14:49:42;19.23;;;9.52;;
32152;SDS011;18656;50.580;11.392;2023-02-07T14:52:10;13.70;;;9.90;;
32152;SDS011;18656;50.580;11.392;2023-02-07T14:57:25;19.58;;;10.50;;
32152;SDS011;18656;50.580;11.392;2023-02-07T15:02:38;23.40;;;10.20;;
32152;SDS011;18656;50.580;11.392;2023-02-07T15:07:39;13.13;;;8.75;;
32152;SDS011;18656;50.580;11.392;2023-02-07T15:10:13;21.10;;;10.50;;
32152;SDS011;18656;50.580;11.392;2023-02-07T15:12:40;27.98;;;10.52;;
32152;SDS011;18656;50.580;11.392;2023-02-07T15:15:15;17.77;;;9.70;;
32152;SDS011;18656;50.580;11.392;2023-02-07T15:17:42;24.10;;;10.48;;
32152;SDS011;18656;50.580;11.392;2023-02-07T15:20:17;32.80;;;9.82;;
32152;SDS011;18656;50.580;11.392;2023-02-07T15:22:48;26.25;;;10.98;;
32152;SDS011;18656;50.580;11.392;2023-02-07T15:25:18;25.83;;;10.45;;
32152;SDS011;18656;50.580;11.392;2023-02-07T15:31:03;27.92;;;11.98;;
32152;SDS011;18656;50.580;11.392;2023-02-07T15:33:38;41.15;;;13.05;;
32152;SDS011;18656;50.580;11.392;2023-02-07T15:38:54;56.30;;;13.60;;
32152;SDS011;18656;50.580;11.392;2023-02-07T15:41:21;56.28;;;12.15;;
32152;SDS011;18656;50.580;11.392;2023-02-07T15:43:56;48.92;;;13.52;;
32152;SDS011;18656;50.580;11.392;2023-02-07T15:46:26;23.98;;;12.23;;
32152;SDS011;18656;50.580;11.392;2023-02-07T15:49:08;41.47;;;13.43;;
32152;SDS011;18656;50.580;11.392;2023-02-07T15:51:37;42.45;;;12.40;;
32152;SDS011;18656;50.580;11.392;2023-02-07T15:54:11;85.38;;;17.60;;
32152;SDS011;18656;50.580;11.392;2023-02-07T15:56:42;51.30;;;13.65;;
32152;SDS011;18656;50.580;11.392;2023-02-07T15:59:10;50.72;;;13.13;;
32152;SDS011;18656;50.580;11.392;2023-02-07T16:01:42;37.72;;;13.60;;
32152;SDS011;18656;50.580;11.392;2023-02-07T16:04:09;27.98;;;12.13;;
32152;SDS011;18656;50.580;11.392;2023-02-07T16:06:36;32.72;;;11.77;;
32152;SDS011;18656;50.580;11.392;2023-02-07T16:12:28;26.08;;;11.52;;
32152;SDS011;18656;50.580;11.392;2023-02-07T16:14:58;19.85;;;10.93;;
32152;SDS011;18656;50.580;11.392;2023-02-07T16:17:39;31.33;;;16.17;;
32152;SDS011;18656;50.580;11.392;2023-02-07T16:20:12;27.52;;;13.88;;
32152;SDS011;18656;50.580;11.392;2023-02-07T16:22:39;25.33;;;14.02;;
32152;SDS011;18656;50.580;11.392;2023-02-07T16:25:12;27.77;;;12.73;;
32152;SDS011;18656;50.580;11.392;2023-02-07T16:27:42;23.15;;;12.00;;